Time;durP1;ratioP1;P1;durP2;ratioP2;P2;SDS_P1;SDS_P2;PMS_P1;PMS_P2;Temp;Humidity;BMP_temperature;BMP_pressure;BME280_temperature;BME280_humidity;BME280_pressure;Samples;Min_cycle;Max_cycle;Signal;HPM_P1;HPM_P2
2023/04/19 00:01:31;;;;;;;2.50;2.30;;;10.00;99.90;11.80;97007.00;;;;5108490;28;20272;-73
2023/04/19 00:04:21;;;;;;;3.73;2.47;;;10.00;99.90;11.70;97001.00;;;;5106229;28;20206;-73
2023/04/19 00:07:10;;;;;;;3.97;2.67;;;9.90;99.90;11.70;96997.00;;;;5107930;28;20213;-73
2023/04/19 00:09:59;;;;;;;2.30;2.10;;;9.90;99.90;11.70;97001.00;;;;5107249;28;20202;-73
2023/04/19 00:12:47;;;;;;;2.60;2.40;;;9.90;99.90;11.60;96997.00;;;;5106275;28;20229;-73
2023/04/19 00:15:37;;;;;;;3.07;2.20;;;9.90;99.90;11.70;96998.00;;;;5106397;28;20720;-73
2023/04/19 00:18:26;;;;;;;2.00;1.80;;;9.90;99.90;11.60;96985.00;;;;5106941;28;21647;-74
2023/04/19 00:21:16;;;;;;;2.53;2.33;;;10.00;99.90;11.50;96983.00;;;;5105059;28;20770;-72
2023/04/19 00:24:05;;;;;;;2.43;2.23;;;9.90;99.90;11.50;96981.00;;;;5098773;28;20275;-73
2023/04/19 00:26:54;;;;;;;2.13;1.90;;;9.80;99.90;11.60;96983.00;;;;5104466;28;20193;-72
2023/04/19 00:29:43;;;;;;;3.13;2.10;;;9.80;99.90;11.50;96981.00;;;;5096222;28;20198;-73
2023/04/19 00:32:31;;;;;;;2.93;2.10;;;9.80;99.90;11.50;96984.00;;;;5107214;28;20223;-72
2023/04/19 00:35:20;;;;;;;3.77;2.00;;;9.70;99.90;11.50;96975.00;;;;5105373;28;20214;-72
2023/04/19 00:38:11;;;;;;;2.03;1.83;;;9.80;99.90;11.40;96969.00;;;;5107083;28;20560;-73
2023/04/19 00:41:00;;;;;;;2.10;1.90;;;9.70;99.90;11.30;96962.00;;;;5106863;28;20211;-72
2023/04/19 00:43:48;;;;;;;2.13;1.93;;;9.60;99.90;11.30;96954.00;;;;5108355;28;20199;-73
2023/04/19 00:46:38;;;;;;;2.40;2.20;;;9.70;99.90;11.30;96948.00;;;;5107203;28;20608;-73
2023/04/19 00:49:27;;;;;;;3.23;1.90;;;9.60;99.90;11.30;96947.00;;;;5109948;28;20217;-72
2023/04/19 00:52:16;;;;;;;1.80;1.70;;;9.60;99.90;11.20;96949.00;;;;5108891;27;20226;-73
2023/04/19 00:55:08;;;;;;;2.10;1.90;;;9.50;99.90;11.20;96934.00;;;;5100589;28;20192;-73
2023/04/19 00:57:57;;;;;;;2.77;2.00;;;9.50;99.90;11.10;96926.00;;;;5109523;28;20226;-72
2023/04/19 01:00:46;;;;;;;1.97;1.73;;;9.50;99.90;11.00;96924.00;;;;5110660;28;20682;-72
2023/04/19 01:03:36;;;;;;;2.00;1.80;;;9.40;99.90;10.90;96931.00;;;;5100779;28;20244;-73
2023/04/19 01:06:26;;;;;;;1.87;1.73;;;9.40;99.90;10.80;96929.00;;;;5104530;28;20218;-72
2023/04/19 01:09:15;;;;;;;2.73;2.13;;;9.30;99.90;10.90;96925.00;;;;5108085;28;20199;-73
2023/04/19 01:12:06;;;;;;;3.43;2.10;;;9.30;99.90;10.80;96932.00;;;;5105251;28;20575;-72
2023/04/19 01:14:54;;;;;;;2.23;2.13;;;9.20;99.90;10.80;96929.00;;;;5107772;28;20210;-73
2023/04/19 01:17:43;;;;;;;4.77;1.47;;;9.20;99.90;10.80;96921.00;;;;5107770;28;20366;-72
2023/04/19 01:20:32;;;;;;;2.20;2.07;;;9.20;99.90;10.80;96927.00;;;;5102590;28;20210;-72
2023/04/19 01:23:22;;;;;;;2.40;2.20;;;9.10;99.90;10.60;96911.00;;;;5104788;28;20264;-72
2023/04/19 01:26:11;;;;;;;3.03;2.43;;;9.10;99.90;10.50;96908.00;;;;5103444;28;20202;-72
2023/04/19 01:29:00;;;;;;;2.33;2.00;;;9.10;99.90;10.60;96910.00;;;;5110329;28;20240;-73
2023/04/19 01:31:52;;;;;;;2.00;1.77;;;9.00;99.90;10.10;96902.00;;;;5110632;28;20225;-72
2023/04/19 01:34:41;;;;;;;2.17;1.97;;;8.90;99.90;10.10;96899.00;;;;5106963;28;20202;-71
2023/04/19 01:37:30;;;;;;;2.33;2.13;;;8.80;99.90;10.10;96909.00;;;;5109392;28;20229;-72
2023/04/19 01:40:22;;;;;;;4.47;2.27;;;8.70;99.90;9.30;96906.00;;;;5107420;28;20575;-74
2023/04/19 01:43:14;;;;;;;2.23;2.00;;;8.50;99.90;9.70;96901.00;;;;5111575;28;20225;-73
2023/04/19 01:46:02;;;;;;;2.30;1.83;;;8.40;99.90;9.80;96900.00;;;;5103193;28;20210;-74
2023/04/19 01:48:51;;;;;;;2.40;2.17;;;8.50;99.90;9.70;96902.00;;;;5109379;28;20300;-70
2023/04/19 01:51:40;;;;;;;4.07;2.07;;;8.40;99.90;10.00;96890.00;;;;5106771;27;20215;-73
2023/04/19 01:54:28;;;;;;;2.30;2.10;;;8.40;99.90;9.90;96891.00;;;;5109893;28;20235;-72
2023/04/19 01:57:19;;;;;;;3.30;2.03;;;8.50;99.90;9.70;96892.00;;;;5106466;28;20449;-71
2023/04/19 02:00:10;;;;;;;1.93;1.83;;;8.40;99.90;9.40;96887.00;;;;5106866;28;20572;-72
2023/04/19 02:02:58;;;;;;;2.23;2.03;;;8.40;99.90;9.30;96881.00;;;;5110311;28;20226;-73
2023/04/19 02:05:47;;;;;;;3.17;2.53;;;8.20;99.90;9.30;96874.00;;;;5110382;28;20206;-73
2023/04/19 02:08:36;;;;;;;2.10;1.90;;;8.10;99.90;9.00;96875.00;;;;5108798;28;20194;-73
2023/04/19 02:11:25;;;;;;;1.40;1.30;;;8.20;99.90;9.20;96870.00;;;;5109036;28;20230;-73
2023/04/19 02:14:15;;;;;;;2.30;2.10;;;8.10;99.90;9.20;96869.00;;;;5110559;28;20225;-70
2023/04/19 02:17:03;;;;;;;2.37;2.17;;;8.00;99.90;9.60;96868.00;;;;5109097;28;20601;-70
2023/04/19 02:19:52;;;;;;;3.00;2.70;;;8.00;99.90;9.80;96872.00;;;;5108881;28;20199;-70
2023/04/19 02:22:42;;;;;;;2.70;2.50;;;8.10;99.90;9.80;96864.00;;;;5107028;28;20271;-71
2023/04/19 02:25:31;;;;;;;2.30;2.10;;;8.20;99.90;9.70;96865.00;;;;5109342;28;21182;-70
2023/04/19 02:28:20;;;;;;;2.30;2.10;;;8.20;99.90;9.80;96860.00;;;;5106919;28;20294;-70
2023/04/19 02:31:10;;;;;;;2.43;2.03;;;8.20;99.90;9.90;96856.00;;;;5106236;28;20206;-71
2023/04/19 02:33:58;;;;;;;3.37;3.07;;;7.30;99.90;9.90;96854.00;;;;5110265;28;20629;-71
2023/04/19 02:36:47;;;;;;;3.77;2.33;;;8.30;99.90;9.80;96858.00;;;;5106683;28;20318;-70
2023/04/19 02:39:36;;;;;;;6.13;2.00;;;8.20;99.90;9.50;96849.00;;;;5104752;28;20194;-70
2023/04/19 02:42:24;;;;;;;2.20;2.00;;;8.20;99.90;9.40;96853.00;;;;5107921;28;20254;-71
2023/04/19 02:45:13;;;;;;;2.13;2.00;;;8.20;99.90;9.10;96844.00;;;;5106988;28;20214;-71
2023/04/19 02:48:04;;;;;;;2.03;1.93;;;8.00;99.90;9.30;96848.00;;;;5105589;28;20226;-71
2023/04/19 02:50:53;;;;;;;2.40;2.20;;;8.00;99.90;9.30;96833.00;;;;5103410;28;21006;-71
2023/04/19 02:53:42;;;;;;;3.50;2.70;;;7.90;99.90;9.00;96841.00;;;;5108645;28;20199;-72
2023/04/19 02:56:30;;;;;;;2.33;2.13;;;7.80;99.90;9.00;96834.00;;;;5108269;28;20263;-71
2023/04/19 02:59:19;;;;;;;2.30;2.07;;;7.70;99.90;8.90;96825.00;;;;5109246;28;20760;-68
2023/04/19 03:02:08;;;;;;;2.20;2.00;;;7.70;99.90;8.70;96829.00;;;;5105168;28;20218;-73
2023/04/19 03:04:58;;;;;;;2.27;2.00;;;7.70;99.90;8.30;96829.00;;;;5107653;28;20202;-72
2023/04/19 03:07:46;;;;;;;2.53;1.97;;;7.50;99.90;8.60;96829.00;;;;5105166;28;20206;-70
2023/04/19 03:10:35;;;;;;;2.50;2.30;;;7.40;99.90;8.80;96829.00;;;;5105084;28;20218;-69
2023/04/19 03:13:24;;;;;;;2.40;2.20;;;7.40;99.90;8.90;96824.00;;;;5106778;28;20669;-69
2023/04/19 03:16:13;;;;;;;4.80;2.57;;;7.40;99.90;9.00;96811.00;;;;5101358;28;20199;-69
2023/04/19 03:19:01;;;;;;;4.67;3.00;;;7.40;99.90;8.60;96809.00;;;;5102991;28;20604;-69
2023/04/19 03:21:51;;;;;;;2.73;2.53;;;7.30;99.90;8.00;96795.00;;;;5107428;28;20218;-73
2023/04/19 03:24:40;;;;;;;2.70;2.10;;;7.20;99.90;8.00;96799.00;;;;5105289;28;20654;-72
2023/04/19 03:27:29;;;;;;;2.57;2.37;;;7.20;99.90;7.70;96790.00;;;;5102805;28;20724;-69
2023/04/19 03:30:18;;;;;;;3.40;2.73;;;6.60;99.90;7.60;96798.00;;;;5105068;28;20823;-73
2023/04/19 03:33:07;;;;;;;2.63;2.43;;;6.60;99.90;7.60;96788.00;;;;5107337;28;20267;-69
2023/04/19 03:35:55;;;;;;;3.40;2.20;;;6.60;99.90;7.60;96782.00;;;;5106800;28;20688;-72
2023/04/19 03:38:46;;;;;;;3.77;2.40;;;6.40;99.90;8.00;96781.00;;;;5105093;28;20210;-72
2023/04/19 03:41:34;;;;;;;3.30;2.73;;;6.50;99.90;8.00;96782.00;;;;5107114;28;20225;-72
2023/04/19 03:44:23;;;;;;;3.13;2.40;;;6.40;99.90;7.70;96783.00;;;;5106868;28;20198;-71
2023/04/19 03:47:12;;;;;;;4.17;2.07;;;6.30;99.90;7.40;96778.00;;;;5104022;28;20291;-73
2023/04/19 03:50:00;;;;;;;3.03;2.40;;;6.40;99.90;7.30;96774.00;;;;5108257;28;20219;-69
2023/04/19 03:52:49;;;;;;;4.90;3.13;;;6.40;99.90;7.90;96782.00;;;;5106974;28;20218;-71
2023/04/19 03:55:39;;;;;;;2.97;2.73;;;6.80;99.90;8.10;96788.00;;;;5106335;28;20194;-71
2023/04/19 03:58:28;;;;;;;3.10;2.80;;;6.50;99.90;8.00;96785.00;;;;5106289;28;20226;-71
2023/04/19 04:01:20;;;;;;;3.40;2.60;;;6.70;99.90;7.80;96775.00;;;;5104056;28;20225;-71
2023/04/19 04:04:10;;;;;;;2.37;2.17;;;6.20;99.90;7.60;96783.00;;;;5105816;28;20260;-71
2023/04/19 04:06:59;;;;;;;4.40;2.23;;;6.60;99.90;7.30;96782.00;;;;5100930;27;20202;-72
2023/04/19 04:09:48;;;;;;;2.63;2.17;;;5.90;99.90;6.90;96778.00;;;;5108559;27;20225;-73
2023/04/19 04:12:38;;;;;;;2.20;2.00;;;6.30;99.90;6.80;96783.00;;;;5103038;28;20268;-67
2023/04/19 04:15:26;;;;;;;2.63;2.27;;;6.00;99.90;7.00;96777.00;;;;5103575;28;20202;-70
2023/04/19 04:18:16;;;;;;;2.53;2.33;;;6.00;99.90;7.60;96779.00;;;;5104437;28;20265;-70
2023/04/19 04:21:05;;;;;;;3.10;2.17;;;6.20;99.90;7.60;96785.00;;;;5107744;28;20626;-71
2023/04/19 04:23:53;;;;;;;2.13;2.03;;;6.00;99.90;7.20;96775.00;;;;5107830;28;20203;-72
2023/04/19 04:26:42;;;;;;;2.50;2.30;;;6.10;99.90;6.50;96770.00;;;;5103704;28;20202;-73
2023/04/19 04:29:33;;;;;;;2.10;1.90;;;6.00;99.90;6.60;96780.00;;;;5105849;28;20619;-70
2023/04/19 04:32:22;;;;;;;2.27;2.07;;;5.50;99.90;6.30;96769.00;;;;5106105;28;20230;-73
2023/04/19 04:35:11;;;;;;;3.20;2.90;;;5.60;99.90;6.20;96787.00;;;;5107324;28;20212;-66
2023/04/19 04:37:59;;;;;;;2.90;2.67;;;5.60;99.90;6.70;96775.00;;;;5107319;28;20606;-71
2023/04/19 04:40:52;;;;;;;3.47;2.67;;;5.60;99.90;6.40;96777.00;;;;5105934;28;20199;-73
2023/04/19 04:43:41;;;;;;;3.40;3.10;;;5.50;99.90;6.80;96779.00;;;;5102907;28;20195;-74
2023/04/19 04:46:31;;;;;;;9.43;2.90;;;5.30;99.90;7.40;96782.00;;;;5105657;28;20264;-70
2023/04/19 04:49:21;;;;;;;2.47;2.27;;;5.80;99.90;7.30;96783.00;;;;5101337;28;20191;-72
2023/04/19 04:52:10;;;;;;;7.77;3.07;;;5.50;99.90;7.50;96780.00;;;;5101774;28;20226;-71
2023/04/19 04:54:59;;;;;;;3.20;2.23;;;5.90;99.90;7.80;96780.00;;;;5101132;28;20251;-71
2023/04/19 04:57:49;;;;;;;3.00;1.80;;;6.10;99.90;7.30;96770.00;;;;5106458;28;20255;-72
2023/04/19 05:00:38;;;;;;;2.10;2.00;;;6.10;99.90;7.50;96778.00;;;;5081857;28;20196;-74
2023/04/19 05:03:28;;;;;;;3.43;2.23;;;6.10;99.90;7.90;96782.00;;;;5086089;28;20249;-74
2023/04/19 05:06:17;;;;;;;6.60;1.93;;;6.10;99.90;7.40;96775.00;;;;5082502;28;20252;-72
2023/04/19 05:09:06;;;;;;;2.83;2.37;;;6.30;99.90;7.10;96773.00;;;;5087389;28;20260;-74
2023/04/19 05:11:55;;;;;;;2.77;2.43;;;6.30;99.90;8.00;96787.00;;;;5073333;28;20219;-72
2023/04/19 05:14:43;;;;;;;2.60;2.40;;;6.10;99.90;8.00;96780.00;;;;5084437;28;20579;-73
2023/04/19 05:17:32;;;;;;;2.57;2.33;;;6.50;99.90;8.20;96784.00;;;;5071246;28;20196;-70
2023/04/19 05:20:22;;;;;;;4.63;2.13;;;6.70;99.90;8.40;96781.00;;;;5078832;28;20219;-68
2023/04/19 05:23:11;;;;;;;2.43;2.20;;;7.10;99.90;8.20;96771.00;;;;5081891;28;20234;-67
2023/04/19 05:26:00;;;;;;;3.60;2.80;;;6.90;99.90;8.20;96768.00;;;;5079499;28;20192;-72
2023/04/19 05:28:49;;;;;;;2.27;1.63;;;6.90;99.90;8.00;96769.00;;;;5083308;28;20206;-69
2023/04/19 05:31:37;;;;;;;3.07;2.17;;;6.70;99.90;7.80;96753.00;;;;5083146;28;20227;-73
2023/04/19 05:34:26;;;;;;;2.53;2.17;;;6.70;99.90;8.00;96767.00;;;;5088517;28;20195;-69
2023/04/19 05:37:16;;;;;;;3.43;2.30;;;6.70;99.90;8.00;96763.00;;;;5088747;28;20696;-71
2023/04/19 05:40:08;;;;;;;2.30;2.10;;;6.90;99.90;7.90;96762.00;;;;5092150;28;20223;-72
2023/04/19 05:42:57;;;;;;;2.53;2.23;;;6.70;99.90;8.40;96758.00;;;;5077829;28;20216;-72
2023/04/19 05:45:46;;;;;;;3.53;2.67;;;6.80;99.90;9.00;96776.00;;;;5070483;28;20601;-72
2023/04/19 05:48:34;;;;;;;2.97;2.33;;;7.00;99.90;8.90;96764.00;;;;5071817;28;20203;-72
2023/04/19 05:51:23;;;;;;;4.07;2.07;;;7.20;99.90;8.20;96762.00;;;;5090831;28;20222;-74
2023/04/19 05:54:13;;;;;;;2.90;2.20;;;7.50;99.90;8.80;96759.00;;;;5088544;28;20694;-70
2023/04/19 05:57:02;;;;;;;2.30;2.10;;;7.30;99.90;8.80;96754.00;;;;5078154;28;20195;-68
2023/04/19 05:59:51;;;;;;;4.07;2.37;;;7.40;99.90;8.90;96753.00;;;;5091241;28;20214;-66
2023/04/19 06:02:39;;;;;;;2.20;1.77;;;7.40;99.90;9.00;96760.00;;;;5102979;27;20818;-68
2023/04/19 06:05:28;;;;;;;2.07;1.87;;;7.40;99.90;9.10;96762.00;;;;5097682;28;20234;-72
2023/04/19 06:08:17;;;;;;;2.80;2.20;;;7.60;99.90;9.50;96761.00;;;;5109038;27;20206;-71
2023/04/19 06:11:07;;;;;;;1.80;1.70;;;7.70;99.90;9.50;96759.00;;;;5112135;27;20195;-71
2023/04/19 06:14:03;;;;;;;3.27;1.97;;;8.00;99.90;9.90;96767.00;;;;5103033;28;20191;-71
2023/04/19 06:16:51;;;;;;;2.30;2.10;;;8.00;99.90;10.30;96758.00;;;;5098933;28;20198;-71
2023/04/19 06:19:41;;;;;;;1.83;1.73;;;8.30;99.90;10.10;96760.00;;;;5103525;27;20645;-72
2023/04/19 06:22:29;;;;;;;4.73;2.20;;;8.30;99.90;10.00;96748.00;;;;5095641;27;20267;-71
2023/04/19 06:25:18;;;;;;;2.70;1.60;;;8.40;99.90;10.30;96750.00;;;;5093030;28;20344;-68
2023/04/19 06:28:08;;;;;;;3.00;2.00;;;8.50;99.90;10.40;96744.00;;;;5105491;28;20689;-68
2023/04/19 06:30:57;;;;;;;2.43;2.07;;;8.70;99.90;10.50;96742.00;;;;5106061;28;20294;-72
2023/04/19 06:33:46;;;;;;;2.70;1.93;;;8.90;99.90;10.90;96733.00;;;;5095454;28;20206;-71
2023/04/19 06:36:34;;;;;;;2.53;1.87;;;8.90;99.90;11.10;96742.00;;;;5105224;28;20588;-71
2023/04/19 06:39:23;;;;;;;2.00;1.87;;;9.10;99.90;11.50;96742.00;;;;5090664;28;20218;-71
2023/04/19 06:42:12;;;;;;;2.97;2.40;;;9.30;99.90;11.90;96741.00;;;;5099390;28;20227;-71
2023/04/19 06:45:02;;;;;;;1.90;1.80;;;9.50;99.90;12.10;96744.00;;;;5100016;28;20198;-71
2023/04/19 06:47:51;;;;;;;6.47;2.40;;;9.80;99.90;12.50;96741.00;;;;5095751;28;20199;-72
2023/04/19 06:50:39;;;;;;;6.73;3.70;;;10.00;99.90;12.70;96740.00;;;;5092327;28;20203;-71
2023/04/19 06:53:28;;;;;;;4.70;3.60;;;10.20;99.90;13.00;96736.00;;;;5105318;28;20199;-71
2023/04/19 06:56:17;;;;;;;5.73;3.50;;;10.50;99.90;13.30;96743.00;;;;5097748;28;20199;-72
2023/04/19 06:59:06;;;;;;;4.40;3.90;;;10.80;99.90;13.40;96736.00;;;;5102737;28;20318;-73
2023/04/19 07:01:57;;;;;;;4.00;3.03;;;11.00;99.90;13.70;96735.00;;;;5103999;28;20323;-73
2023/04/19 07:04:46;;;;;;;9.63;3.60;;;11.20;99.90;13.90;96721.00;;;;5103093;28;20205;-70
2023/04/19 07:07:36;;;;;;;4.53;3.87;;;11.50;99.90;14.20;96723.00;;;;5100263;28;20207;-71
2023/04/19 07:10:25;;;;;;;6.27;4.30;;;11.70;99.90;14.40;96719.00;;;;5101753;28;20207;-71
2023/04/19 07:13:14;;;;;;;5.33;3.23;;;11.90;99.90;14.70;96715.00;;;;5096610;27;20218;-71
2023/04/19 07:16:06;;;;;;;3.90;3.43;;;12.20;99.90;15.00;96722.00;;;;5121414;27;20190;-71
2023/04/19 07:18:56;;;;;;;5.70;3.47;;;12.40;99.90;15.10;96701.00;;;;5121467;27;20692;-71
2023/04/19 07:21:45;;;;;;;4.03;3.60;;;12.60;99.90;15.30;96710.00;;;;5121772;27;20217;-71
2023/04/19 07:24:34;;;;;;;4.13;3.23;;;12.80;99.90;15.40;96715.00;;;;5112872;27;20194;-71
2023/04/19 07:27:22;;;;;;;3.43;3.10;;;13.00;99.90;15.50;96711.00;;;;5125695;27;20210;-71
2023/04/19 07:30:12;;;;;;;3.90;3.40;;;13.20;99.90;15.40;96696.00;;;;5128288;27;20284;-77
2023/04/19 07:33:03;;;;;;;6.47;4.13;;;13.20;99.90;15.70;96689.00;;;;5113092;27;20225;-75
2023/04/19 07:35:53;;;;;;;5.27;4.00;;;13.40;99.90;15.50;96685.00;;;;5119147;27;20205;-74
2023/04/19 07:38:41;;;;;;;7.17;4.10;;;13.50;99.90;15.70;96683.00;;;;5124852;27;20214;-75
2023/04/19 07:41:30;;;;;;;6.30;4.27;;;13.50;99.90;15.90;96689.00;;;;5104281;28;20227;-69
2023/04/19 07:44:19;;;;;;;7.20;3.80;;;13.60;99.90;15.90;96675.00;;;;5098729;28;20202;-77
2023/04/19 07:47:08;;;;;;;5.57;3.80;;;13.80;99.90;16.10;96675.00;;;;5108619;28;20545;-71
2023/04/19 07:49:57;;;;;;;4.27;3.40;;;13.90;99.90;16.10;96668.00;;;;5105062;28;20210;-71
2023/04/19 07:52:47;;;;;;;3.40;3.03;;;14.00;99.90;16.70;96678.00;;;;5099388;27;20222;-71
2023/04/19 07:55:35;;;;;;;4.17;3.77;;;14.20;99.90;16.40;96675.00;;;;5127479;27;20287;-72
2023/04/19 07:58:25;;;;;;;6.27;3.77;;;14.30;99.90;16.80;96659.00;;;;5126630;27;20206;-76
2023/04/19 08:01:14;;;;;;;7.53;4.03;;;14.40;99.90;17.30;96665.00;;;;5126146;27;20229;-73
2023/04/19 08:04:03;;;;;;;7.47;3.33;;;14.70;99.90;17.10;96658.00;;;;5125385;27;20198;-73
2023/04/19 08:06:52;;;;;;;4.90;3.30;;;14.80;99.90;17.10;96662.00;;;;5123616;27;20210;-70
2023/04/19 08:09:42;;;;;;;8.50;4.27;;;14.90;99.90;17.10;96643.00;;;;5126073;27;20198;-78
2023/04/19 08:12:31;;;;;;;4.80;3.30;;;15.10;99.90;17.30;96666.00;;;;5125595;27;20217;-76
2023/04/19 08:15:24;;;;;;;4.37;3.53;;;15.20;99.90;17.30;96652.00;;;;5123502;27;20200;-74
2023/04/19 08:18:15;;;;;;;3.63;3.33;;;15.20;99.80;17.80;96648.00;;;;5124321;27;20213;-73
2023/04/19 08:21:05;;;;;;;3.50;3.10;;;15.40;99.90;18.20;96645.00;;;;5127333;28;20291;-73
2023/04/19 08:23:53;;;;;;;7.70;4.03;;;15.70;99.60;18.50;96639.00;;;;5122559;28;20208;-73
2023/04/19 08:26:52;;;;;;;4.27;3.30;;;15.80;99.20;18.70;96636.00;;;;5122942;28;20267;-73
2023/04/19 08:29:41;;;;;;;4.33;3.57;;;16.00;98.00;19.00;96645.00;;;;5125551;28;20232;-73
2023/04/19 08:32:30;;;;;;;6.20;3.40;;;16.30;97.30;18.80;96651.00;;;;5122428;27;20228;-72
2023/04/19 08:35:18;;;;;;;3.23;2.90;;;16.50;96.00;17.60;96640.00;;;;5128311;27;20205;-71
2023/04/19 08:38:07;;;;;;;4.83;3.33;;;16.20;95.10;17.50;96626.00;;;;5121227;27;20230;-70
2023/04/19 08:40:56;;;;;;;2.97;2.70;;;16.00;93.70;18.20;96641.00;;;;5126956;27;20221;-77
2023/04/19 08:43:51;;;;;;;5.27;3.73;;;16.10;94.30;18.40;96636.00;;;;5128639;27;20197;-75
2023/04/19 08:46:41;;;;;;;4.77;3.87;;;16.20;94.50;18.30;96610.00;;;;5129810;27;20197;-70
2023/04/19 08:49:30;;;;;;;3.47;3.17;;;16.20;94.20;19.40;96621.00;;;;5127158;27;20958;-70
2023/04/19 08:52:19;;;;;;;3.60;3.30;;;16.50;94.50;19.90;96619.00;;;;5124754;28;20327;-71
2023/04/19 08:55:09;;;;;;;6.13;3.50;;;16.80;94.60;20.00;96627.00;;;;5121705;27;20666;-73
2023/04/19 08:57:58;;;;;;;3.20;2.97;;;17.10;93.50;19.60;96629.00;;;;5124518;27;20898;-71
2023/04/19 09:00:48;;;;;;;7.17;3.50;;;17.10;92.70;19.40;96619.00;;;;5120784;27;20217;-70
2023/04/19 09:03:44;;;;;;;6.80;3.43;;;17.10;91.50;18.80;96617.00;;;;5128836;27;20603;-71
2023/04/19 09:06:40;;;;;;;5.57;3.70;;;17.00;89.90;19.00;96623.00;;;;5124806;27;20212;-74
2023/04/19 09:09:30;;;;;;;5.60;2.90;;;17.00;89.10;18.60;96620.00;;;;5126395;27;20698;-73
2023/04/19 09:12:23;;;;;;;5.90;3.50;;;16.90;87.60;18.80;96613.00;;;;5114477;27;20279;-70
2023/04/19 09:15:12;;;;;;;6.03;3.80;;;16.70;89.50;18.50;96611.00;;;;5126817;27;20209;-71
2023/04/19 09:18:08;;;;;;;7.07;3.50;;;16.60;89.50;18.70;96612.00;;;;5130090;27;20194;-71
2023/04/19 09:20:57;;;;;;;4.83;3.50;;;16.60;88.80;18.80;96602.00;;;;5129037;27;20218;-72
2023/04/19 09:23:47;;;;;;;4.80;3.77;;;16.60;87.90;18.00;96599.00;;;;5124679;27;20197;-76
2023/04/19 09:26:37;;;;;;;3.77;3.33;;;16.30;88.80;18.20;96600.00;;;;5126228;27;20660;-71
2023/04/19 09:29:26;;;;;;;4.13;3.17;;;16.30;89.30;18.20;96601.00;;;;5124314;27;20194;-71
2023/04/19 09:32:15;;;;;;;5.27;3.83;;;16.30;90.20;18.30;96607.00;;;;5123278;27;20226;-71
2023/04/19 09:35:06;;;;;;;4.87;3.67;;;16.20;90.70;18.20;96600.00;;;;5127322;27;20243;-71
2023/04/19 09:38:00;;;;;;;5.70;3.83;;;16.20;90.20;18.00;96598.00;;;;5124664;27;20282;-72
2023/04/19 09:40:52;;;;;;;4.57;3.60;;;16.10;89.90;18.10;96599.00;;;;5129722;27;20727;-71
2023/04/19 09:43:40;;;;;;;3.67;3.37;;;16.00;90.10;18.30;96603.00;;;;5125936;27;20198;-72
2023/04/19 09:46:33;;;;;;;4.77;3.27;;;16.10;90.20;18.10;96598.00;;;;5128645;27;20330;-74
2023/04/19 09:49:24;;;;;;;4.53;3.93;;;16.00;89.80;17.80;96585.00;;;;5130498;27;20209;-75
2023/04/19 09:52:19;;;;;;;3.80;3.37;;;15.90;89.80;17.90;96591.00;;;;5122400;27;20218;-74
2023/04/19 09:55:09;;;;;;;6.07;4.07;;;15.90;89.40;18.00;96597.00;;;;5125733;27;20216;-74
2023/04/19 09:58:01;;;;;;;4.97;3.77;;;15.90;90.40;18.00;96597.00;;;;5124109;27;20214;-74
2023/04/19 10:00:51;;;;;;;4.47;3.67;;;15.80;90.40;17.60;96602.00;;;;5129157;27;20253;-75
2023/04/19 10:03:40;;;;;;;5.23;4.33;;;15.80;90.20;17.40;96589.00;;;;5123286;27;20220;-73
2023/04/19 10:06:30;;;;;;;5.17;3.97;;;15.60;90.00;17.40;96590.00;;;;5127472;27;20202;-73
2023/04/19 10:09:25;;;;;;;7.23;3.67;;;15.50;90.20;17.40;96589.00;;;;5138286;27;20198;-73
2023/04/19 10:12:16;;;;;;;5.03;3.93;;;15.40;90.60;17.30;96590.00;;;;5126418;27;20245;-74
2023/04/19 10:15:20;;;;;;;6.13;4.13;;;15.40;90.60;17.50;96589.00;;;;5121784;27;20569;-74
2023/04/19 10:18:10;;;;;;;4.93;4.20;;;15.40;90.70;17.60;96575.00;;;;5124332;27;20206;-74
2023/04/19 10:21:03;;;;;;;4.47;3.80;;;15.40;90.70;18.00;96582.00;;;;5126960;27;20231;-74
2023/04/19 10:23:52;;;;;;;5.83;4.90;;;15.60;90.60;17.60;96573.00;;;;5125057;27;20195;-74
2023/04/19 10:27:15;;;;;;;4.87;3.63;;;15.60;90.70;18.50;96571.00;;;;5129971;27;20209;-73
2023/04/19 10:30:09;;;;;;;6.03;3.90;;;15.80;91.00;18.20;96576.00;;;;5042582;28;20204;-73
2023/04/19 10:33:01;;;;;;;6.00;4.73;;;16.00;90.50;18.50;96580.00;;;;5043691;28;20899;-73
2023/04/19 10:35:51;;;;;;;5.07;4.57;;;16.10;90.40;18.30;96573.00;;;;5127674;27;20213;-73
2023/04/19 10:38:42;;;;;;;4.10;3.70;;;16.20;88.60;18.70;96567.00;;;;5129635;27;20193;-73
2023/04/19 10:41:57;;;;;;;3.73;3.30;;;16.30;89.10;18.50;96570.00;;;;5124880;27;20253;-73
2023/04/19 10:45:34;;;;;;;4.00;3.60;;;16.30;85.90;18.50;96564.00;;;;5128952;27;20206;-73
2023/04/19 10:48:38;;;;;;;6.67;3.70;;;16.30;86.10;18.40;96559.00;;;;5123571;27;20198;-74
2023/04/19 10:51:28;;;;;;;5.30;3.47;;;16.30;86.60;18.50;96559.00;;;;5122360;27;20213;-73
2023/04/19 10:54:30;;;;;;;4.60;3.27;;;16.20;86.80;17.90;96557.00;;;;5123940;27;20226;-74
2023/04/19 10:57:19;;;;;;;5.37;3.77;;;16.20;83.40;18.30;96560.00;;;;5126022;27;20193;-73
2023/04/19 11:00:19;;;;;;;5.83;3.87;;;16.10;84.40;18.00;96557.00;;;;5123326;27;20202;-74
2023/04/19 11:03:52;;;;;;;4.70;4.20;;;16.10;86.30;17.80;96558.00;;;;5130598;27;20229;-73
2023/04/19 11:07:00;;;;;;;4.13;3.73;;;16.00;86.10;18.00;96558.00;;;;5123285;27;20216;-71
2023/04/19 11:09:51;;;;;;;7.67;4.27;;;15.90;86.80;17.70;96556.00;;;;5126481;27;20200;-72
2023/04/19 11:12:44;;;;;;;6.00;3.63;;;15.80;85.50;17.20;96566.00;;;;5130543;27;20602;-70
2023/04/19 11:15:33;;;;;;;7.07;4.00;;;15.70;85.00;16.90;96560.00;;;;5137943;27;20230;-71
2023/04/19 11:18:21;;;;;;;3.97;3.67;;;15.50;88.50;16.40;96564.00;;;;5129208;27;20748;-73
2023/04/19 11:21:15;;;;;;;3.63;3.13;;;15.30;89.30;15.40;96563.00;;;;5124779;27;20225;-74
2023/04/19 11:24:08;;;;;;;41.10;29.30;;;14.80;89.90;15.30;96563.00;;;;5116696;27;21044;-69
2023/04/19 11:26:57;;;;;;;41.83;32.43;;;14.50;90.80;15.50;96564.00;;;;5124549;27;20693;-68
2023/04/19 11:29:46;;;;;;;15.37;12.30;;;14.20;91.40;15.90;96567.00;;;;5126331;27;20224;-67
2023/04/19 11:32:35;;;;;;;9.17;5.80;;;14.20;92.00;16.10;96574.00;;;;5126820;27;20267;-68
2023/04/19 11:35:27;;;;;;;4.83;4.30;;;14.10;92.60;16.10;96571.00;;;;5126199;27;20205;-68
2023/04/19 11:38:17;;;;;;;6.13;4.20;;;14.10;92.90;15.80;96573.00;;;;5127153;27;20202;-69
2023/04/19 11:41:06;;;;;;;6.63;4.63;;;14.10;92.90;15.80;96569.00;;;;5126357;27;20555;-69
2023/04/19 11:43:54;;;;;;;4.50;3.93;;;14.00;93.00;15.80;96578.00;;;;5123410;27;20205;-70
2023/04/19 11:46:57;;;;;;;5.57;4.13;;;14.00;93.50;15.80;96563.00;;;;5124798;27;20656;-69
2023/04/19 11:49:46;;;;;;;6.20;4.63;;;13.90;93.50;16.20;96571.00;;;;5122686;27;20198;-69
2023/04/19 11:52:35;;;;;;;9.57;4.40;;;14.00;94.70;16.20;96582.00;;;;5125102;27;20225;-69
2023/04/19 11:55:26;;;;;;;6.27;5.27;;;14.10;95.50;14.80;96566.00;;;;5124703;27;20606;-73
2023/04/19 11:58:28;;;;;;;7.90;5.33;;;14.00;96.20;15.50;96566.00;;;;5119364;27;20247;-71
2023/04/19 12:01:19;;;;;;;6.60;5.83;;;13.90;96.70;16.20;96587.00;;;;5072469;28;20245;-71
2023/04/19 12:04:10;;;;;;;5.93;5.33;;;14.00;97.60;15.90;96578.00;;;;5073600;28;20219;-72
2023/04/19 12:07:01;;;;;;;5.93;4.70;;;14.00;97.40;15.50;96570.00;;;;5080687;28;20569;-68
2023/04/19 12:09:49;;;;;;;7.47;6.20;;;13.90;97.10;15.40;96560.00;;;;5085604;28;20195;-70
2023/04/19 12:12:39;;;;;;;5.90;4.67;;;13.80;97.60;15.00;96549.00;;;;5079174;28;20249;-73
2023/04/19 12:15:42;;;;;;;7.50;5.40;;;13.70;97.70;15.90;96558.00;;;;5084752;28;20196;-74
2023/04/19 12:18:44;;;;;;;6.87;5.07;;;13.80;98.90;16.20;96551.00;;;;5080521;28;20195;-72
2023/04/19 12:21:33;;;;;;;5.93;5.33;;;13.90;99.00;16.20;96553.00;;;;5079586;28;20245;-72
2023/04/19 12:24:21;;;;;;;6.80;5.07;;;14.00;98.60;16.00;96547.00;;;;5082771;28;20204;-73
2023/04/19 12:27:11;;;;;;;6.83;5.53;;;14.20;98.90;14.80;96549.00;;;;5094298;28;20203;-69
2023/04/19 12:30:01;;;;;;;6.73;6.00;;;14.00;99.10;16.10;96546.00;;;;5093582;28;20195;-69
2023/04/19 12:32:51;;;;;;;7.57;5.87;;;14.00;99.90;16.80;96553.00;;;;5094154;28;20233;-69
2023/04/19 12:35:40;;;;;;;6.30;5.33;;;14.20;99.90;17.10;96552.00;;;;5099859;28;20690;-70
2023/04/19 12:38:28;;;;;;;8.10;6.43;;;14.40;99.90;16.80;96555.00;;;;5086559;28;20701;-69
2023/04/19 12:41:18;;;;;;;6.00;5.40;;;14.50;99.90;16.70;96547.00;;;;5088581;28;20215;-75
2023/04/19 12:44:06;;;;;;;7.97;6.67;;;14.60;99.60;16.90;96557.00;;;;5087048;28;20288;-69